createdAt,value
2018-05-01T00:00:37.604Z,99921.58
2018-05-01T00:03:40.146Z,99925.97
2018-05-01T00:06:42.704Z,99943.92
2018-05-01T00:09:45.201Z,99943.92
2018-05-01T00:12:47.686Z,99951.15
2018-05-01T00:15:50.163Z,99967.42
2018-05-01T00:18:52.717Z,99967.47
2018-05-01T00:21:55.212Z,99960.41
2018-05-01T00:24:57.739Z,99937.05
2018-05-01T00:28:00.267Z,99920.23
2018-05-01T00:31:02.845Z,99916.43
2018-05-01T00:34:05.394Z,99930.33
2018-05-01T00:37:08.594Z,99949.25
2018-05-01T00:40:11.092Z,99960.03
2018-05-01T00:43:13.596Z,99962.25
2018-05-01T00:46:16.109Z,99960.14
2018-05-01T00:49:18.596Z,99963.48
2018-05-01T00:52:32.740Z,99970.16
2018-05-01T00:55:35.264Z,99987.53
2018-05-01T00:58:37.779Z,100003.28
2018-05-01T01:01:40.269Z,100002.36
2018-05-01T01:04:42.787Z,99989.17
2018-05-01T01:07:45.282Z,99985.63
2018-05-01T01:10:47.772Z,99983.45
2018-05-01T01:13:50.280Z,99973.78
2018-05-01T01:16:52.756Z,99984.48
2018-05-01T01:19:55.247Z,99975.86
2018-05-01T01:22:57.712Z,99980.30
2018-05-01T01:26:00.201Z,99980.45
2018-05-01T01:29:02.671Z,99971.19
2018-05-01T01:32:14.982Z,99977.67
2018-05-01T01:35:16.947Z,99986.66
2018-05-01T01:38:18.897Z,99986.91
2018-05-01T01:41:20.874Z,99987.94
2018-05-01T01:44:22.896Z,99980.45
2018-05-01T01:47:24.867Z,99986.70
2018-05-01T01:50:26.823Z,99995.89
2018-05-01T01:53:28.793Z,99994.27
2018-05-01T01:56:30.753Z,99995.10
2018-05-01T01:59:33.121Z,100001.05
2018-05-01T02:02:35.082Z,100005.31
2018-05-01T02:05:37.023Z,100004.64
2018-05-01T02:08:38.965Z,99995.66
2018-05-01T02:11:40.991Z,99999.17
2018-05-01T02:14:42.955Z,100001.84
2018-05-01T02:17:44.912Z,99998.08
2018-05-01T02:20:46.846Z,99974.66
2018-05-01T02:23:48.776Z,99967.31
2018-05-01T02:26:50.711Z,99975.89
2018-05-01T02:29:52.746Z,99984.11
2018-05-01T02:32:54.718Z,99983.64
2018-05-01T02:35:56.672Z,99975.41
2018-05-01T02:38:58.604Z,99977.20
2018-05-01T02:42:00.572Z,99968.27
2018-05-01T02:45:02.508Z,99967.31
2018-05-01T02:48:04.485Z,99974.51
2018-05-01T02:51:06.542Z,99972.71
2018-05-01T02:54:08.532Z,99976.88
2018-05-01T02:57:10.480Z,99976.85
2018-05-01T03:00:12.454Z,99980.10
2018-05-01T03:03:14.435Z,99970.27
2018-05-01T03:06:16.423Z,99975.97
2018-05-01T03:09:18.428Z,99973.56
2018-05-01T03:12:20.384Z,99966.61
2018-05-01T03:15:22.341Z,99967.65
2018-05-01T03:18:24.307Z,99982.88
2018-05-01T03:21:26.315Z,99984.21
2018-05-01T03:24:28.259Z,99983.86
2018-05-01T03:27:30.241Z,99989.34
2018-05-01T03:30:32.190Z,99995.91
2018-05-01T03:33:34.199Z,99984.67
2018-05-01T03:36:36.154Z,99986.59
2018-05-01T03:39:38.099Z,99999.84
2018-05-01T03:42:40.075Z,100008.05
2018-05-01T03:45:42.025Z,100008.63
2018-05-01T03:48:43.990Z,100004.87
2018-05-01T03:51:45.929Z,100014.31
2018-05-01T03:54:47.896Z,100018.75
2018-05-01T03:57:49.855Z,100028.33
2018-05-01T04:00:51.866Z,100025.04
2018-05-01T04:03:53.767Z,100032.51
2018-05-01T04:06:55.743Z,100031.40
2018-05-01T04:09:57.718Z,100037.36
2018-05-01T04:12:59.692Z,100039.75
2018-05-01T04:16:01.679Z,100044.28
2018-05-01T04:19:03.654Z,100045.87
2018-05-01T04:22:05.633Z,100059.95
2018-05-01T04:25:07.590Z,100057.73
2018-05-01T04:28:09.564Z,100069.31
2018-05-01T04:31:11.526Z,100077.30
2018-05-01T04:34:13.542Z,100082.94
2018-05-01T04:37:15.545Z,100076.11
2018-05-01T04:40:17.571Z,100074.84
2018-05-01T04:43:20.066Z,100078.00
2018-05-01T04:46:22.042Z,100075.12
2018-05-01T04:49:24.057Z,100073.88
2018-05-01T04:52:26.041Z,100073.22
2018-05-01T04:55:28.086Z,100073.22
2018-05-01T04:58:30.122Z,100059.62
2018-05-01T05:01:32.086Z,100068.22
2018-05-01T05:04:34.023Z,100073.47
2018-05-01T05:07:35.972Z,100072.81
2018-05-01T05:10:37.911Z,100071.98
2018-05-01T05:13:39.853Z,100076.75
2018-05-01T05:16:41.810Z,100079.17
2018-05-01T05:19:43.793Z,100083.48
2018-05-01T05:22:45.759Z,100087.91
2018-05-01T05:25:47.741Z,100091.87
2018-05-01T05:28:49.688Z,100099.67
2018-05-01T05:31:51.648Z,100097.55
2018-05-01T05:34:53.616Z,100100.91
2018-05-01T05:37:55.567Z,100099.40
2018-05-01T05:40:57.515Z,100094.27
2018-05-01T05:43:59.489Z,100106.23
2018-05-01T05:47:01.500Z,100104.22
2018-05-01T05:50:03.595Z,100096.97
2018-05-01T05:53:05.542Z,100099.34
2018-05-01T05:56:07.562Z,100102.86
2018-05-01T05:59:18.848Z,100103.67
2018-05-01T06:02:20.834Z,100103.77
2018-05-01T06:05:22.778Z,100091.61
2018-05-01T06:08:24.755Z,100078.11
2018-05-01T06:11:26.719Z,100096.01
2018-05-01T06:14:28.728Z,100114.30
2018-05-01T06:17:30.781Z,100103.97
2018-05-01T06:20:32.718Z,100114.16
2018-05-01T06:23:34.689Z,100121.40
2018-05-01T06:26:36.667Z,100104.55
2018-05-01T06:29:38.650Z,100122.26
2018-05-01T06:32:41.624Z,100145.16
2018-05-01T06:35:43.610Z,100132.89
2018-05-01T06:38:45.536Z,100135.44
2018-05-01T06:41:47.523Z,100134.83
2018-05-01T06:44:49.552Z,100133.45
2018-05-01T06:47:51.530Z,100147.52
2018-05-01T06:50:54.831Z,100153.63
2018-05-01T06:53:59.416Z,100144.48
2018-05-01T06:57:01.383Z,100140.70
2018-05-01T07:00:03.354Z,100144.30
2018-05-01T07:03:05.384Z,100152.23
2018-05-01T07:06:07.391Z,100145.48
2018-05-01T07:09:09.330Z,100144.25
2018-05-01T07:12:11.324Z,100173.90
2018-05-01T07:15:13.286Z,100172.06
2018-05-01T07:18:15.270Z,100151.17
2018-05-01T07:21:17.277Z,100164.12
2018-05-01T07:24:19.252Z,100171.59
2018-05-01T07:27:21.283Z,100166.92
2018-05-01T07:30:23.202Z,100171.70
2018-05-01T07:33:25.185Z,100155.05
2018-05-01T07:36:27.212Z,100175.24
2018-05-01T07:39:29.202Z,100165.77
2018-05-01T07:42:31.213Z,100165.25
2018-05-01T07:45:33.259Z,100196.87
2018-05-01T07:48:35.242Z,100177.70
2018-05-01T07:51:37.207Z,100183.94
2018-05-01T07:54:39.218Z,100184.27
2018-05-01T07:57:41.228Z,100172.86
2018-05-01T08:00:43.286Z,100170.53
2018-05-01T08:03:45.451Z,100179.83
2018-05-01T08:06:47.451Z,100182.94
2018-05-01T08:09:49.417Z,100180.34
2018-05-01T08:12:51.427Z,100186.27
2018-05-01T08:15:53.397Z,100193.14
2018-05-01T08:18:55.413Z,100208.28
2018-05-01T08:21:57.411Z,100256.66
2018-05-01T08:24:59.412Z,100210.48
2018-05-01T08:28:01.454Z,100214.58
2018-05-01T08:31:03.453Z,100210.14
2018-05-01T08:34:05.460Z,100202.11
2018-05-01T08:37:07.476Z,100207.30
2018-05-01T08:40:09.547Z,100205.86
2018-05-01T08:43:11.641Z,100220.39
2018-05-01T08:46:13.624Z,100214.63
2018-05-01T08:49:15.661Z,100202.95
2018-05-01T08:52:17.631Z,100218.47
2018-05-01T08:55:19.655Z,100204.06
2018-05-01T08:58:21.688Z,100212.22
2018-05-01T09:01:23.699Z,100227.10
2018-05-01T09:04:25.718Z,100223.27
2018-05-01T09:07:27.765Z,100218.67
2018-05-01T09:10:29.771Z,100219.00
2018-05-01T09:13:31.777Z,100221.49
2018-05-01T09:16:33.835Z,100252.61
2018-05-01T09:19:35.878Z,100244.05
2018-05-01T09:22:37.894Z,100242.88
2018-05-01T09:25:40.653Z,100244.80
2018-05-01T09:28:42.689Z,100250.64
2018-05-01T09:31:44.664Z,100264.44
2018-05-01T09:34:46.829Z,100262.05
2018-05-01T09:37:48.862Z,100267.28
2018-05-01T09:40:50.885Z,100266.05
2018-05-01T09:43:52.938Z,100278.11
2018-05-01T09:46:54.954Z,100264.14
2018-05-01T09:49:57.025Z,100252.39
2018-05-01T09:52:59.642Z,100267.14
2018-05-01T09:56:02.218Z,100260.72
2018-05-01T09:59:04.796Z,100250.87
2018-05-01T10:02:07.345Z,100263.52
2018-05-01T10:05:09.959Z,100262.83
2018-05-01T10:08:12.475Z,100247.52
2018-05-01T10:11:15.042Z,100255.02
2018-05-01T10:14:17.625Z,100265.03
2018-05-01T10:17:20.266Z,100260.22
2018-05-01T10:20:22.849Z,100267.87
2018-05-01T10:23:25.398Z,100269.44
2018-05-01T10:26:28.581Z,100254.03
2018-05-01T10:29:31.144Z,100256.17
2018-05-01T10:32:33.701Z,100256.30
2018-05-01T10:35:36.977Z,100249.97
2018-05-01T10:38:39.709Z,100239.40
2018-05-01T10:41:42.425Z,100255.28
2018-05-01T10:44:44.972Z,100259.46
2018-05-01T10:47:48.032Z,100237.58
2018-05-01T10:50:50.634Z,100261.94
2018-05-01T10:53:53.378Z,100258.02
2018-05-01T10:56:56.024Z,100262.00
2018-05-01T10:59:58.617Z,100246.69
2018-05-01T11:03:01.160Z,100262.27
2018-05-01T11:06:04.565Z,100266.53
2018-05-01T11:09:07.144Z,100277.37
2018-05-01T11:12:12.033Z,100271.55
2018-05-01T11:15:14.684Z,100268.19
2018-05-01T11:18:17.297Z,100254.95
2018-05-01T11:21:20.001Z,100264.19
2018-05-01T11:24:22.533Z,100272.91
2018-05-01T11:27:25.088Z,100264.98
2018-05-01T11:30:27.733Z,100282.41
2018-05-01T11:33:30.401Z,100272.88
2018-05-01T11:36:32.914Z,100277.33
2018-05-01T11:39:35.547Z,100284.02
2018-05-01T11:42:38.162Z,100279.30
2018-05-01T11:45:40.729Z,100291.24
2018-05-01T11:48:43.296Z,100287.70
2018-05-01T11:51:45.808Z,100305.91
2018-05-01T11:54:48.389Z,100304.23
2018-05-01T11:57:50.935Z,100317.48
2018-05-01T12:00:53.530Z,100310.34
2018-05-01T12:03:56.084Z,100324.13
2018-05-01T12:06:58.677Z,100336.73
2018-05-01T12:10:01.232Z,100332.84
2018-05-01T12:13:03.764Z,100339.36
2018-05-01T12:16:06.385Z,100361.60
2018-05-01T12:19:08.949Z,100349.16
2018-05-01T12:22:11.501Z,100354.80
2018-05-01T12:25:14.055Z,100359.36
2018-05-01T12:28:16.563Z,100352.53
2018-05-01T12:31:19.231Z,100361.42
2018-05-01T12:34:21.824Z,100355.02
2018-05-01T12:37:24.447Z,100372.94
2018-05-01T12:40:26.999Z,100367.55
2018-05-01T12:43:29.546Z,100360.91
2018-05-01T12:46:32.129Z,100358.70
2018-05-01T12:49:34.695Z,100353.43
2018-05-01T12:52:37.239Z,100350.86
2018-05-01T12:55:39.800Z,100383.49
2018-05-01T12:58:42.368Z,100342.43
2018-05-01T13:01:44.927Z,100364.45
2018-05-01T13:04:47.476Z,100381.90
2018-05-01T13:07:50.039Z,100358.35
2018-05-01T13:10:52.709Z,100350.52
2018-05-01T13:13:55.372Z,100373.31
2018-05-01T13:16:57.948Z,100366.20
2018-05-01T13:20:00.571Z,100363.13
2018-05-01T13:23:03.108Z,100365.11
2018-05-01T13:26:05.754Z,100383.16
2018-05-01T13:29:08.284Z,100368.27
2018-05-01T13:32:10.917Z,100362.00
2018-05-01T13:35:13.536Z,100396.37
2018-05-01T13:38:16.117Z,100388.31
2018-05-01T13:41:18.674Z,100380.53
2018-05-01T13:44:21.190Z,100350.17
2018-05-01T13:47:23.816Z,100376.90
2018-05-01T13:50:26.509Z,100390.09
2018-05-01T13:53:29.081Z,100400.09
2018-05-01T13:56:31.627Z,100399.69
2018-05-01T13:59:34.273Z,100417.49
2018-05-01T14:02:36.822Z,100404.79
2018-05-01T14:05:39.369Z,100414.09
2018-05-01T14:08:41.965Z,100415.97
2018-05-01T14:11:44.480Z,100386.88
2018-05-01T14:14:47.076Z,100399.53
2018-05-01T14:17:49.665Z,100401.73
2018-05-01T14:20:52.413Z,100410.81
2018-05-01T14:23:54.920Z,100417.52
2018-05-01T14:26:57.488Z,100395.36
2018-05-01T14:30:00.687Z,100385.19
2018-05-01T14:33:03.243Z,100393.27
2018-05-01T14:36:05.747Z,100405.11
2018-05-01T14:39:08.317Z,100405.11
2018-05-01T14:42:10.967Z,100419.47
2018-05-01T14:45:14.349Z,100418.02
2018-05-01T14:48:16.939Z,100426.06
2018-05-01T14:51:20.201Z,100435.83
2018-05-01T14:54:22.830Z,100430.05
2018-05-01T14:57:25.487Z,100443.97
2018-05-01T15:00:28.017Z,100433.90
2018-05-01T15:03:31.336Z,100448.09
2018-05-01T15:06:33.991Z,100438.93
2018-05-01T15:09:36.549Z,100426.55
2018-05-01T15:12:39.131Z,100455.80
2018-05-01T15:15:41.768Z,100468.47
2018-05-01T15:18:44.812Z,100450.98
2018-05-01T15:21:47.435Z,100461.22
2018-05-01T15:24:50.392Z,100450.44
2018-05-01T15:27:53.621Z,100467.32
2018-05-01T15:30:56.256Z,100477.50
2018-05-01T15:33:58.957Z,100471.26
2018-05-01T15:37:01.587Z,100486.70
2018-05-01T15:40:04.221Z,100453.23
2018-05-01T15:43:13.826Z,100466.41
2018-05-01T15:46:19.454Z,100464.72
2018-05-01T15:49:32.639Z,100478.72
2018-05-01T15:52:36.712Z,100483.38
2018-05-01T15:55:40.468Z,100470.66
2018-05-01T15:58:49.803Z,100473.95
2018-05-01T16:05:15.333Z,100497.48
2018-05-01T16:08:28.499Z,100492.19
2018-05-01T16:11:37.421Z,100489.38
2018-05-01T16:18:31.460Z,100495.50
2018-05-01T16:30:05.810Z,100481.56
2018-05-01T16:33:08.734Z,100481.55
2018-05-01T16:36:11.504Z,100486.16
2018-05-01T16:39:16.146Z,100479.67
2018-05-01T16:42:18.750Z,100479.84
2018-05-01T16:45:21.369Z,100491.59
2018-05-01T16:48:24.316Z,100490.50
2018-05-01T16:51:26.906Z,100488.76
2018-05-01T16:54:29.528Z,100495.68
2018-05-01T16:57:32.904Z,100495.19
2018-05-01T17:00:35.708Z,100507.25
2018-05-01T17:03:38.328Z,100506.88
2018-05-01T17:06:40.895Z,100506.86
2018-05-01T17:09:43.761Z,100510.84
2018-05-01T17:12:46.601Z,100512.06
2018-05-01T17:15:49.550Z,100509.69
2018-05-01T17:18:52.419Z,100522.55
2018-05-01T17:21:55.179Z,100518.33
2018-05-01T17:24:57.959Z,100525.14
2018-05-01T17:28:00.653Z,100532.12
2018-05-01T17:31:03.301Z,100524.13
2018-05-01T17:34:05.961Z,100521.53
2018-05-01T17:37:08.941Z,100518.33
2018-05-01T17:40:11.710Z,100542.48
2018-05-01T17:43:14.357Z,100565.19
2018-05-01T17:46:17.032Z,100564.20
2018-05-01T17:49:20.980Z,100566.61
2018-05-01T17:52:23.676Z,100577.91
2018-05-01T17:55:28.137Z,100569.50
2018-05-01T17:58:30.990Z,100571.50
2018-05-01T18:01:33.917Z,100574.69
2018-05-01T18:04:37.756Z,100575.97
2018-05-01T18:07:40.558Z,100576.83
2018-05-01T18:10:43.436Z,100581.73
2018-05-01T18:13:47.123Z,100580.28
2018-05-01T18:16:49.845Z,100585.45
2018-05-01T18:19:52.540Z,100597.01
2018-05-01T18:22:55.302Z,100600.40
2018-05-01T18:25:57.985Z,100597.13
2018-05-01T18:29:03.254Z,100599.57
2018-05-01T18:32:06.420Z,100609.55
2018-05-01T18:35:15.666Z,100618.50
2018-05-01T18:38:18.734Z,100619.95
2018-05-01T18:41:23.029Z,100626.18
2018-05-01T18:44:26.485Z,100639.42
2018-05-01T18:47:29.436Z,100635.53
2018-05-01T18:50:40.084Z,100641.61
2018-05-01T18:53:35.821Z,100648.55
2018-05-01T18:56:38.665Z,100644.70
2018-05-01T18:59:41.387Z,100658.77
2018-05-01T19:02:44.212Z,100654.20
2018-05-01T19:05:46.906Z,100659.70
2018-05-01T19:08:49.856Z,100657.66
2018-05-01T19:11:53.726Z,100665.92
2018-05-01T19:15:13.708Z,100671.39
2018-05-01T19:18:17.666Z,100678.52
2018-05-01T19:21:20.482Z,100686.49
2018-05-01T19:24:23.711Z,100687.52
2018-05-01T19:27:26.577Z,100694.03
2018-05-01T19:30:29.725Z,100690.23
2018-05-01T19:33:33.437Z,100693.41
2018-05-01T19:36:36.936Z,100693.70
2018-05-01T19:39:41.185Z,100697.78
2018-05-01T19:42:45.048Z,100694.86
2018-05-01T19:45:48.844Z,100695.38
2018-05-01T19:48:51.548Z,100704.78
2018-05-01T19:51:54.326Z,100708.50
2018-05-01T19:54:56.972Z,100717.36
2018-05-01T19:57:59.816Z,100719.09
2018-05-01T20:01:02.607Z,100726.86
2018-05-01T20:04:05.265Z,100734.48
2018-05-01T20:07:08.400Z,100742.00
2018-05-01T20:10:11.384Z,100747.70
2018-05-01T20:13:14.024Z,100747.30
2018-05-01T20:16:16.841Z,100743.44
2018-05-01T20:19:20.189Z,100745.00
2018-05-01T20:22:22.851Z,100735.45
2018-05-01T20:25:25.553Z,100743.41
2018-05-01T20:28:32.588Z,100745.41
2018-05-01T20:31:35.250Z,100747.02
2018-05-01T20:34:37.872Z,100746.92
2018-05-01T20:37:40.977Z,100751.30
2018-05-01T20:40:43.663Z,100760.55
2018-05-01T20:43:46.248Z,100756.88
2018-05-01T20:46:49.062Z,100755.20
2018-05-01T20:49:51.746Z,100750.66
2018-05-01T20:52:54.566Z,100751.63
2018-05-01T20:55:58.128Z,100746.22
2018-05-01T20:59:01.906Z,100748.19
2018-05-01T21:02:04.509Z,100753.00
2018-05-01T21:05:07.107Z,100766.60
2018-05-01T21:08:09.814Z,100768.81
2018-05-01T21:11:12.509Z,100770.33
2018-05-01T21:14:15.310Z,100778.53
2018-05-01T21:17:17.896Z,100784.47
2018-05-01T21:20:20.495Z,100773.90
2018-05-01T21:23:24.038Z,100787.31
2018-05-01T21:26:26.664Z,100788.73
2018-05-01T21:29:31.172Z,100798.50
2018-05-01T21:32:33.760Z,100794.69
2018-05-01T21:35:36.460Z,100795.29
2018-05-01T21:38:39.014Z,100806.78
2018-05-01T21:41:41.753Z,100815.19
2018-05-01T21:44:44.352Z,100813.14
2018-05-01T21:47:46.911Z,100829.23
2018-05-01T21:50:49.556Z,100829.46
2018-05-01T21:53:52.114Z,100827.49
2018-05-01T21:56:54.773Z,100836.67
2018-05-01T21:59:58.101Z,100848.50
2018-05-01T22:03:00.664Z,100851.88
2018-05-01T22:06:03.219Z,100855.55
2018-05-01T22:09:07.032Z,100852.47
2018-05-01T22:12:09.581Z,100856.48
2018-05-01T22:15:12.097Z,100859.75
2018-05-01T22:18:14.737Z,100865.13
2018-05-01T22:21:17.441Z,100877.51
2018-05-01T22:24:20.031Z,100883.71
2018-05-01T22:27:22.761Z,100888.28
2018-05-01T22:30:25.309Z,100903.75
2018-05-01T22:33:28.677Z,100909.80
2018-05-01T22:36:31.348Z,100915.69
2018-05-01T22:39:33.944Z,100905.15
2018-05-01T22:42:36.636Z,100906.88
2018-05-01T22:45:39.261Z,100909.50
2018-05-01T22:48:41.971Z,100911.66
2018-05-01T22:51:44.787Z,100909.20
2018-05-01T22:54:48.750Z,100911.83
2018-05-01T22:57:51.520Z,100909.42
2018-05-01T23:00:54.165Z,100919.16
2018-05-01T23:03:57.640Z,100917.36
2018-05-01T23:07:00.303Z,100916.73
2018-05-01T23:10:02.827Z,100916.05
2018-05-01T23:13:05.487Z,100913.97
2018-05-01T23:16:08.087Z,100909.61
2018-05-01T23:19:10.685Z,100909.32
2018-05-01T23:22:14.001Z,100908.05
2018-05-01T23:25:16.545Z,100914.13
2018-05-01T23:28:19.067Z,100909.84
2018-05-01T23:31:21.575Z,100911.40
2018-05-01T23:34:24.095Z,100912.51
2018-05-01T23:37:26.616Z,100919.11
2018-05-01T23:40:29.147Z,100916.94
2018-05-01T23:43:31.674Z,100928.27
2018-05-01T23:46:34.224Z,100944.14
2018-05-01T23:49:36.782Z,100941.23
2018-05-01T23:52:39.295Z,100939.38
2018-05-01T23:55:41.815Z,100942.48
2018-05-01T23:58:44.343Z,100949.13
